Kam Paeng Phet, Thailand

9:34 AM ICT on March 05, 2015 (GMT +0700)
Phitsanulok | Change Station
CLOSE
Current Station
Airport
Location: Phitsanulok,
Elevation: 148 ft
Nearby Weather Stations

Elev 148 ft 16.80 °N, 100.28 °E | Updated 34 minutes ago

Partly Cloudy
Partly Cloudy
84 °F
Feels Like 92 °F
N
12
Wind Variable Wind from South

Today
High -- | Low -- °F
--% Chance of Precip.
Yesterday
High -- | Low -- °F
Precip. -- in
6:37 AM 6:29 PM
Full, 100% visible
Pressure 29.89 in
Visibility 3.7 miles
Clouds Few 3000 ft
Heat Index 92 °F
Dew Point 75 °F
Humidity 74%
Rainfall 0.00 in
Snow Depth Not available.
UV 5 out of 12
Pollen Not available.
Air Quality Not available.
Flu Activity Not available.
METAR VTPP 050200Z 19010KT 6000 FEW030 29/24 Q1012 A2990

More Conditions Fewer Conditions

Pressure 29.89 in
Visibility 3.7 miles
Clouds Few 3000 ft
Heat Index 92 °F
Dew Point 75 °F
Humidity 74%
Rainfall 0.00 in
Snow Depth Not available.
UV 5 out of 12
Pollen Not available.
Air Quality Not available.
Flu Activity Not available.
METAR VTPP 050200Z 19010KT 6000 FEW030 29/24 Q1012 A2990

More Conditions Fewer Conditions

10-Day Weather Forecast

Almanac

Astronomy

Mar. 05, 2015 Rise Set
Actual Time
Civil Twilight
Nautical Twilight
Astronomical Twilight
Moon
Length of Visible Light
Length of Day
Tomorrow will be .
, % of the Moon is Illuminated

Today's Extremes

Country Highs Country Lows

Community

WunderPhotos

Upload Photos

1,802,631 photos uploaded!

WunderBlogs® & News

Nearby

Air Quality

  Air Quality AQ Index Pollutant
Not available.

Snow Depth

Station Depth Elevation

Earthquake Activity

City Distance Mag. Time & Date
Minimum magnitude displayed is 2.5.

Coastal Water Temperatures

Place Temperature

Nearby Weather Stations